Aérodrome :
LOGIN :

S'inscrire | Disclaimer

   EN    FR    IT 

 










Légende :    VFR   VFR Marginal   IFR   IFR Intensif   IFR Très Intensif
Visi : 
Plafond : 
>= 8 km
>= 3000ft
5 à 8 km
1000 à 3000 ft
1500m à 5 km
500 à 1000 ft
800 à 1500m
200 à 500 ft
< 800m
< 200 ft
Symboles :   Orages  Brouillard  Fortes neiges  Fortes précipitations  Vent > 20 kt
SIGMETs :   Divers  Orages  Givrage  Turbulence  Onde Orograph.  Cendres Volcan.







- Altitude de l'aérodrome : 274 ft
- Code IATA : PUY


LDPL - Pula

DERNIER METAR :
  • 190600Z 11004KT 080V140 0300 R27/0375N FG VV003 06/05 Q1022 NOSIG

METARs EXPIRÉS :
  • 190530Z 14003KT 0300 R27/0325N FG VV002 06/05 Q1022 NOSIG
  • 190500Z 12003KT 070V160 0200 R27/0300N FG VV002 06/06 Q1022 NOSIG
  • 190430Z 10003KT 0200 R27/0250N FG BKN002 05/05 Q1022 NOSIG
  • 190400Z 09003KT 050V120 0200 R27/0200N FG BKN002 05/05 Q1022 NOSIG
  • 190330Z 10003KT 0200 R27/0175N FG BKN002 05/05 Q1022 NOSIG

TAF TAF LDPL
Valide du 19 à 06h jusqu'au 20 à 06h UTC


190525Z 1906/2006 VRB02KT 0200 FG VV002 TX14/1912Z TN00/2005Z
PROB30
TEMPO 1906/1909 0800
BECMG 1909/1911 4000 BR BKN010
TEMPO 1910/1916 25007KT 6000 NSW SCT010
BECMG 1918/1920 0800 FG BKN002
PROB40 1922/2006 0200 VV002
Pas de NOTAMs connus pour ce terrain.



MET'MAP, la Météo Aéronautique d'un coup d'oeil ! - Copyright ORBIFLY Décembre 2007 - Disclaimer

ORBIFLY MET'MAP TEAM :

Programmation & Développement : Alexandra Zaïnal
Conception & Développement : Baudouin d'Aumeries
Co-Programmation & Développement : Marc-Olivier Méhu
Soutien technique & logistique : Manuel Goepfert

Contact : metmap@orbifly.com




SOURCES & CREDITS :

   NOAA